Time;durP1;ratioP1;P1;durP2;ratioP2;P2;SDS_P1;SDS_P2;PMS_P1;PMS_P2;Temp;Humidity;BMP_temperature;BMP_pressure;BME280_temperature;BME280_humidity;BME280_pressure;Samples;Min_cycle;Max_cycle;Signal;HPM_P1;HPM_P2
2023/06/17 00:02:11;;;;;;;0.10;0.10;;;17.10;96.20;;;;;;4822517;29;20096;-81
2023/06/17 00:04:37;;;;;;;0.20;0.20;;;17.20;96.40;;;;;;4819945;29;20127;-80
2023/06/17 00:07:03;;;;;;;0.10;0.10;;;17.20;96.50;;;;;;4839555;29;20038;-80
2023/06/17 00:09:29;;;;;;;0.20;0.20;;;17.10;96.50;;;;;;4838218;29;20479;-80
2023/06/17 00:11:56;;;;;;;0.20;0.20;;;17.10;96.60;;;;;;4832180;29;20671;-80
2023/06/17 00:14:22;;;;;;;0.10;0.10;;;17.20;96.70;;;;;;4810182;29;20097;-80
2023/06/17 00:16:48;;;;;;;0.10;0.10;;;17.10;96.70;;;;;;4818555;29;20042;-80
2023/06/17 00:19:17;;;;;;;0.20;0.20;;;17.20;96.80;;;;;;4818508;29;20102;-80
2023/06/17 00:21:43;;;;;;;0.10;0.10;;;17.20;96.80;;;;;;4835618;29;20041;-80
2023/06/17 00:24:12;;;;;;;0.10;0.10;;;17.20;96.80;;;;;;4833596;29;20042;-80
2023/06/17 00:26:38;;;;;;;0.10;0.10;;;17.20;96.90;;;;;;4822410;29;20058;-79
2023/06/17 00:29:05;;;;;;;0.20;0.20;;;17.20;97.00;;;;;;4811987;29;20053;-79
2023/06/17 00:31:31;;;;;;;0.13;0.13;;;17.20;97.10;;;;;;4837078;29;20106;-79
2023/06/17 00:33:58;;;;;;;0.20;0.20;;;17.20;97.10;;;;;;4822056;29;20050;-80
2023/06/17 00:36:23;;;;;;;0.10;0.10;;;17.20;97.20;;;;;;4837665;29;20058;-80
2023/06/17 00:38:50;;;;;;;0.20;0.20;;;17.20;97.20;;;;;;4835666;29;20050;-80
2023/06/17 00:41:16;;;;;;;0.17;0.17;;;17.20;97.20;;;;;;4834684;29;20045;-80
2023/06/17 00:43:41;;;;;;;0.20;0.20;;;17.20;97.30;;;;;;4836244;29;20529;-80
2023/06/17 00:46:08;;;;;;;0.20;0.20;;;17.20;97.40;;;;;;4838883;29;20436;-80
2023/06/17 00:48:34;;;;;;;0.20;0.20;;;17.20;97.40;;;;;;4837564;29;20133;-79
2023/06/17 00:51:01;;;;;;;0.13;0.13;;;17.20;97.40;;;;;;4838329;29;20128;-79
2023/06/17 00:53:31;;;;;;;0.20;0.20;;;17.20;97.50;;;;;;4821672;29;20080;-80
2023/06/17 00:55:58;;;;;;;0.20;0.20;;;17.20;97.60;;;;;;4815581;29;20048;-79
2023/06/17 00:58:26;;;;;;;0.20;0.20;;;17.20;97.60;;;;;;4810662;29;20054;-79
2023/06/17 01:00:51;;;;;;;0.15;0.15;;;17.20;97.70;;;;;;4836852;29;20094;-79
2023/06/17 01:03:17;;;;;;;0.20;0.20;;;17.20;97.80;;;;;;4818876;29;20042;-79
2023/06/17 01:05:45;;;;;;;0.13;0.13;;;17.20;97.80;;;;;;4823429;29;20466;-80
2023/06/17 01:08:26;;;;;;;0.20;0.20;;;17.10;97.80;;;;;;4820188;29;20118;-79
2023/06/17 01:11:16;;;;;;;0.20;0.20;;;17.10;97.80;;;;;;4822057;29;20053;-79
2023/06/17 01:13:43;;;;;;;0.20;0.20;;;17.20;97.80;;;;;;4834682;29;20054;-80
2023/06/17 01:16:09;;;;;;;0.20;0.20;;;17.20;97.90;;;;;;4821559;29;20086;-80
2023/06/17 01:18:36;;;;;;;0.17;0.17;;;17.20;98.00;;;;;;4819079;29;20631;-80
2023/06/17 01:21:03;;;;;;;0.20;0.20;;;17.20;98.00;;;;;;4821804;29;20050;-79
2023/06/17 01:23:37;;;;;;;0.10;0.10;;;17.20;98.00;;;;;;4822999;29;20614;-79
2023/06/17 01:26:03;;;;;;;0.17;0.17;;;17.20;98.00;;;;;;4819656;29;20050;-80
2023/06/17 01:28:29;;;;;;;0.20;0.20;;;17.20;98.00;;;;;;4818488;29;20400;-80
2023/06/17 01:30:56;;;;;;;0.10;0.10;;;17.20;98.10;;;;;;4832700;29;20076;-79
2023/06/17 01:33:23;;;;;;;0.17;0.17;;;17.10;98.10;;;;;;4820790;29;20076;-80
2023/06/17 01:36:00;;;;;;;0.10;0.10;;;17.20;98.20;;;;;;4842251;29;20061;-80
2023/06/17 01:38:28;;;;;;;0.10;0.10;;;17.10;98.20;;;;;;4824229;29;20054;-79
2023/06/17 01:41:00;;;;;;;0.20;0.20;;;17.10;98.30;;;;;;4826347;29;20061;-79
2023/06/17 01:43:27;;;;;;;0.20;0.20;;;17.10;98.40;;;;;;4841390;29;20077;-79
2023/06/17 01:45:54;;;;;;;0.10;0.10;;;17.10;98.40;;;;;;4824185;29;20533;-79
2023/06/17 01:48:21;;;;;;;0.20;0.20;;;16.90;98.50;;;;;;4822225;29;20046;-79
2023/06/17 01:50:47;;;;;;;0.20;0.20;;;17.00;98.50;;;;;;4824424;29;20050;-80
2023/06/17 01:53:12;;;;;;;0.20;0.20;;;17.00;98.50;;;;;;4840291;29;20041;-79
2023/06/17 01:55:38;;;;;;;0.17;0.17;;;17.00;98.60;;;;;;4840571;29;20078;-80
2023/06/17 01:58:03;;;;;;;0.10;0.10;;;17.00;98.60;;;;;;4841469;29;20052;-80
2023/06/17 02:00:29;;;;;;;0.10;0.10;;;17.00;98.60;;;;;;4839874;29;20050;-79
2023/06/17 02:02:55;;;;;;;0.20;0.20;;;17.00;98.60;;;;;;4822369;29;20058;-80
2023/06/17 02:05:20;;;;;;;0.20;0.20;;;17.00;98.70;;;;;;4823302;29;20054;-79
2023/06/17 02:07:47;;;;;;;0.20;0.20;;;17.00;98.80;;;;;;4842276;29;20399;-80
2023/06/17 02:10:13;;;;;;;0.20;0.20;;;16.90;98.80;;;;;;4825820;29;20559;-80
2023/06/17 02:12:39;;;;;;;0.15;0.15;;;17.00;98.80;;;;;;4841324;29;20625;-79
2023/06/17 02:15:05;;;;;;;0.20;0.20;;;16.90;98.80;;;;;;4822320;29;20194;-79
2023/06/17 02:17:32;;;;;;;0.20;0.20;;;16.90;98.90;;;;;;4836958;29;20495;-80
2023/06/17 02:19:58;;;;;;;0.10;0.10;;;16.90;99.00;;;;;;4840323;29;20521;-79
2023/06/17 02:22:23;;;;;;;0.20;0.20;;;16.90;99.00;;;;;;4839506;29;20137;-80
2023/06/17 02:24:49;;;;;;;0.17;0.17;;;16.90;99.00;;;;;;4823592;29;20053;-79
2023/06/17 02:27:16;;;;;;;0.20;0.20;;;16.90;99.10;;;;;;4834315;29;20194;-79
2023/06/17 02:29:43;;;;;;;0.20;0.20;;;16.80;99.10;;;;;;4820394;29;20050;-80
2023/06/17 02:32:08;;;;;;;0.10;0.10;;;16.80;99.20;;;;;;4824320;29;20415;-79
2023/06/17 02:34:34;;;;;;;0.20;0.20;;;16.80;99.20;;;;;;4821896;29;20052;-79
2023/06/17 02:37:00;;;;;;;0.10;0.10;;;16.80;99.30;;;;;;4825388;29;20109;-79
2023/06/17 02:39:25;;;;;;;0.10;0.10;;;16.80;99.40;;;;;;4841192;29;20518;-79
2023/06/17 02:41:51;;;;;;;0.20;0.20;;;16.80;99.40;;;;;;4840485;29;20049;-79
2023/06/17 02:44:17;;;;;;;0.20;0.20;;;16.80;99.40;;;;;;4823574;29;20050;-79
2023/06/17 02:46:42;;;;;;;0.20;0.20;;;16.80;99.50;;;;;;4823625;29;20094;-79
2023/06/17 02:49:08;;;;;;;0.13;0.13;;;16.80;99.50;;;;;;4821299;29;20129;-79
2023/06/17 02:51:34;;;;;;;0.10;0.10;;;16.80;99.70;;;;;;4841270;29;20170;-79
2023/06/17 02:54:00;;;;;;;0.20;0.20;;;16.70;99.70;;;;;;4839891;29;20050;-78
2023/06/17 02:56:26;;;;;;;0.10;0.10;;;16.70;99.80;;;;;;4839680;29;20049;-79
2023/06/17 02:58:52;;;;;;;0.13;0.13;;;16.70;99.90;;;;;;4831920;29;20050;-79
2023/06/17 03:01:18;;;;;;;0.17;0.17;;;16.70;99.90;;;;;;4816706;29;20062;-80
2023/06/17 03:03:44;;;;;;;0.10;0.10;;;16.70;99.90;;;;;;4814509;29;20050;-79
2023/06/17 03:06:12;;;;;;;0.10;0.10;;;16.70;99.90;;;;;;4823085;29;20046;-79
2023/06/17 03:08:40;;;;;;;0.20;0.20;;;16.70;99.90;;;;;;4824191;29;20045;-79
2023/06/17 03:11:06;;;;;;;0.20;0.20;;;16.70;99.90;;;;;;4821405;29;20490;-79
2023/06/17 03:13:31;;;;;;;0.10;0.10;;;16.70;99.90;;;;;;4841433;29;20498;-80
2023/06/17 03:16:01;;;;;;;0.10;0.10;;;16.70;99.90;;;;;;4823643;29;20053;-79
2023/06/17 03:18:27;;;;;;;0.17;0.17;;;16.60;99.90;;;;;;4821359;29;20659;-79
2023/06/17 03:20:53;;;;;;;0.10;0.10;;;16.70;99.90;;;;;;4839610;29;20563;-79
2023/06/17 03:23:22;;;;;;;0.10;0.10;;;16.60;99.90;;;;;;4819938;29;20053;-79
2023/06/17 03:25:52;;;;;;;0.10;0.10;;;16.60;99.90;;;;;;4839453;29;20046;-79
2023/06/17 03:28:17;;;;;;;0.10;0.10;;;16.60;99.90;;;;;;4821267;29;20122;-79
2023/06/17 03:30:44;;;;;;;0.10;0.10;;;16.60;99.90;;;;;;4832198;29;20123;-80
2023/06/17 03:33:09;;;;;;;0.20;0.20;;;16.60;99.90;;;;;;4816877;29;20041;-79
2023/06/17 03:35:35;;;;;;;0.10;0.10;;;16.60;99.90;;;;;;4823206;29;20058;-79
2023/06/17 03:38:02;;;;;;;0.10;0.10;;;16.60;99.90;;;;;;4821791;29;20495;-79
2023/06/17 03:40:29;;;;;;;0.20;0.20;;;16.60;99.90;;;;;;4837223;29;20057;-79
2023/06/17 03:42:54;;;;;;;0.10;0.10;;;16.60;99.90;;;;;;4823344;29;20053;-79
2023/06/17 03:45:21;;;;;;;0.10;0.10;;;16.60;99.90;;;;;;4823807;29;20057;-79
2023/06/17 03:47:47;;;;;;;0.20;0.20;;;16.50;99.90;;;;;;4821972;29;20137;-79
2023/06/17 03:50:13;;;;;;;0.20;0.20;;;16.50;99.90;;;;;;4821123;29;20053;-79
2023/06/17 03:52:39;;;;;;;0.10;0.10;;;16.50;99.90;;;;;;4822632;29;20129;-80
2023/06/17 03:55:05;;;;;;;0.20;0.20;;;16.50;99.90;;;;;;4839613;29;20091;-79
2023/06/17 03:57:30;;;;;;;0.10;0.10;;;16.40;99.90;;;;;;4822998;29;20049;-80
2023/06/17 03:59:56;;;;;;;0.20;0.20;;;16.40;99.90;;;;;;4823086;29;20054;-79
2023/06/17 04:02:22;;;;;;;0.20;0.20;;;16.40;99.90;;;;;;4837937;29;20428;-79
2023/06/17 04:04:52;;;;;;;0.10;0.10;;;16.40;99.90;;;;;;4822138;29;20052;-80
2023/06/17 04:07:19;;;;;;;0.20;0.20;;;16.40;99.90;;;;;;4837972;29;20094;-79
2023/06/17 04:09:45;;;;;;;0.20;0.20;;;16.40;99.90;;;;;;4822916;29;20057;-79
2023/06/17 04:12:11;;;;;;;0.10;0.10;;;16.40;99.90;;;;;;4821627;29;20042;-80
2023/06/17 04:14:37;;;;;;;0.20;0.20;;;16.40;99.90;;;;;;4823194;29;20053;-80
2023/06/17 04:17:03;;;;;;;0.20;0.20;;;16.40;99.90;;;;;;4821299;29;20038;-80
2023/06/17 04:19:31;;;;;;;0.10;0.10;;;16.40;99.90;;;;;;4829385;29;20053;-80
2023/06/17 04:21:57;;;;;;;0.20;0.20;;;16.40;99.90;;;;;;4833170;29;20049;-79
2023/06/17 04:24:23;;;;;;;0.20;0.20;;;16.40;99.90;;;;;;4835784;29;20049;-79
2023/06/17 04:26:52;;;;;;;0.20;0.20;;;16.40;99.90;;;;;;4837332;29;20045;-80
2023/06/17 04:29:18;;;;;;;0.10;0.10;;;16.40;99.90;;;;;;4820603;29;20054;-79
2023/06/17 04:31:46;;;;;;;0.20;0.20;;;16.40;99.90;;;;;;4819697;29;20046;-79
2023/06/17 04:34:21;;;;;;;0.20;0.20;;;16.40;99.90;;;;;;4814722;29;20046;-79
2023/06/17 04:36:56;;;;;;;0.20;0.20;;;16.40;99.90;;;;;;4809534;29;20550;-79
2023/06/17 04:39:26;;;;;;;0.10;0.10;;;16.40;99.90;;;;;;4837655;29;20388;-80
2023/06/17 04:41:53;;;;;;;0.20;0.20;;;16.40;99.90;;;;;;4821876;29;20049;-79
2023/06/17 04:44:19;;;;;;;0.20;0.20;;;16.40;99.90;;;;;;4838163;29;20118;-79
2023/06/17 04:46:45;;;;;;;0.20;0.20;;;16.50;99.90;;;;;;4838904;29;20464;-80
2023/06/17 04:49:11;;;;;;;0.20;0.20;;;16.50;99.90;;;;;;4836244;29;20046;-79
2023/06/17 04:51:40;;;;;;;0.20;0.20;;;16.40;99.90;;;;;;4838385;29;20084;-79
2023/06/17 04:54:06;;;;;;;0.17;0.17;;;16.50;99.90;;;;;;4822799;29;20092;-79
2023/06/17 04:56:32;;;;;;;0.20;0.20;;;16.50;99.90;;;;;;4836527;29;20447;-79
2023/06/17 04:58:58;;;;;;;0.20;0.20;;;16.50;99.90;;;;;;4838706;29;20045;-78
2023/06/17 05:01:24;;;;;;;0.10;0.10;;;16.50;99.90;;;;;;4821295;29;20053;-78
2023/06/17 05:03:49;;;;;;;0.20;0.20;;;16.50;99.90;;;;;;4832180;29;20061;-78
2023/06/17 05:06:15;;;;;;;0.20;0.20;;;16.60;99.90;;;;;;4836672;29;20042;-78
2023/06/17 05:08:41;;;;;;;0.20;0.20;;;16.60;99.90;;;;;;4820100;29;20052;-78
2023/06/17 05:11:06;;;;;;;0.20;0.20;;;16.60;99.90;;;;;;4821458;29;20133;-78
2023/06/17 05:13:32;;;;;;;0.10;0.10;;;16.60;99.90;;;;;;4837645;29;20114;-78
2023/06/17 05:15:58;;;;;;;0.15;0.15;;;16.60;99.90;;;;;;4821120;29;20562;-78
2023/06/17 05:18:23;;;;;;;0.10;0.10;;;16.60;99.90;;;;;;4817110;29;20038;-78
2023/06/17 05:20:49;;;;;;;0.20;0.20;;;16.60;99.90;;;;;;4836555;29;20049;-78
2023/06/17 05:23:15;;;;;;;0.10;0.10;;;16.60;99.90;;;;;;4815495;29;20164;-78
2023/06/17 05:25:40;;;;;;;0.10;0.10;;;16.60;99.90;;;;;;4819149;29;20077;-78
2023/06/17 05:28:06;;;;;;;0.17;0.17;;;16.60;99.90;;;;;;4819495;29;20483;-78
2023/06/17 05:30:32;;;;;;;0.20;0.20;;;16.60;99.90;;;;;;4815598;29;20052;-79
2023/06/17 05:32:58;;;;;;;0.20;0.20;;;16.60;99.90;;;;;;4823386;29;20153;-79
2023/06/17 05:35:23;;;;;;;0.20;0.20;;;16.60;99.90;;;;;;4836669;29;20065;-77
2023/06/17 05:37:49;;;;;;;0.20;0.20;;;16.70;99.90;;;;;;4820447;29;20498;-77
2023/06/17 05:40:15;;;;;;;0.20;0.20;;;16.70;99.90;;;;;;4839241;29;20116;-77
2023/06/17 05:42:41;;;;;;;0.10;0.10;;;16.70;99.90;;;;;;4817001;29;20094;-78
2023/06/17 05:45:07;;;;;;;0.20;0.20;;;16.70;99.90;;;;;;4820595;29;20101;-78
2023/06/17 05:47:32;;;;;;;0.20;0.20;;;16.70;99.90;;;;;;4834668;29;20113;-78
2023/06/17 05:49:58;;;;;;;0.20;0.20;;;16.70;99.90;;;;;;4820131;29;20495;-78
2023/06/17 05:52:24;;;;;;;0.20;0.20;;;16.70;99.90;;;;;;4837413;29;20093;-77
2023/06/17 05:54:49;;;;;;;0.20;0.20;;;16.70;99.90;;;;;;4835598;29;20121;-78
2023/06/17 05:57:15;;;;;;;0.20;0.20;;;16.70;99.90;;;;;;4835274;29;20042;-78
2023/06/17 05:59:41;;;;;;;0.20;0.20;;;16.80;99.90;;;;;;4810845;29;20042;-77
2023/06/17 06:02:06;;;;;;;0.10;0.10;;;16.80;99.90;;;;;;4821758;29;20046;-77
2023/06/17 06:04:32;;;;;;;0.10;0.10;;;16.80;99.90;;;;;;4836958;29;20053;-78
2023/06/17 06:06:58;;;;;;;0.20;0.20;;;16.80;99.90;;;;;;4836330;29;20046;-78
2023/06/17 06:09:23;;;;;;;0.10;0.10;;;16.80;99.90;;;;;;4838559;29;20061;-78
2023/06/17 06:11:49;;;;;;;0.20;0.20;;;16.90;99.90;;;;;;4819742;29;20462;-78
2023/06/17 06:14:15;;;;;;;0.10;0.10;;;16.90;99.90;;;;;;4819964;29;20440;-78
2023/06/17 06:16:40;;;;;;;0.10;0.10;;;16.90;99.90;;;;;;4820740;29;20109;-77
2023/06/17 06:19:06;;;;;;;0.20;0.20;;;17.00;99.90;;;;;;4820582;29;20053;-78
2023/06/17 06:21:31;;;;;;;0.10;0.10;;;17.00;99.90;;;;;;4838872;29;20535;-78
2023/06/17 06:23:57;;;;;;;0.20;0.20;;;17.00;99.90;;;;;;4837322;29;20053;-78
2023/06/17 06:26:23;;;;;;;0.20;0.20;;;17.10;99.90;;;;;;4838095;29;20049;-78
2023/06/17 06:28:48;;;;;;;0.20;0.20;;;17.10;99.90;;;;;;4810105;29;20058;-78
2023/06/17 06:31:14;;;;;;;0.15;0.15;;;17.10;99.90;;;;;;4817516;29;20407;-78
2023/06/17 06:33:40;;;;;;;0.20;0.20;;;17.20;99.90;;;;;;4818392;29;20037;-78
2023/06/17 06:36:07;;;;;;;0.20;0.20;;;17.20;99.90;;;;;;4822163;29;20451;-79
2023/06/17 06:38:33;;;;;;;0.20;0.20;;;17.20;99.90;;;;;;4841177;29;20916;-79
2023/06/17 06:40:59;;;;;;;0.20;0.20;;;17.30;99.90;;;;;;4821587;29;20140;-78
2023/06/17 06:43:24;;;;;;;0.20;0.20;;;17.30;99.90;;;;;;4829676;29;20194;-78
2023/06/17 06:45:50;;;;;;;0.20;0.20;;;17.30;99.90;;;;;;4825547;29;20407;-79
2023/06/17 06:48:15;;;;;;;0.13;0.13;;;17.40;99.90;;;;;;4809511;29;20278;-79
2023/06/17 06:50:41;;;;;;;0.17;0.17;;;17.40;99.90;;;;;;4840941;29;20053;-79
2023/06/17 06:53:07;;;;;;;0.15;0.15;;;17.50;99.90;;;;;;4823439;29;20670;-77
2023/06/17 06:55:32;;;;;;;0.10;0.10;;;17.50;99.90;;;;;;4821594;29;20048;-80
2023/06/17 06:57:58;;;;;;;0.20;0.20;;;17.60;99.90;;;;;;4839828;29;20042;-79
2023/06/17 07:00:24;;;;;;;0.10;0.10;;;17.60;99.90;;;;;;4845384;29;20058;-80
2023/06/17 07:02:49;;;;;;;0.20;0.20;;;17.70;99.90;;;;;;4828353;29;20053;-79
2023/06/17 07:05:15;;;;;;;0.40;0.40;;;17.70;99.90;;;;;;4838853;29;20088;-79
2023/06/17 07:07:40;;;;;;;0.20;0.20;;;17.80;99.90;;;;;;4831344;29;20045;-79
2023/06/17 07:10:07;;;;;;;0.20;0.20;;;17.80;99.90;;;;;;4822850;29;20057;-79
2023/06/17 07:12:33;;;;;;;0.13;0.13;;;17.90;99.90;;;;;;4834301;29;20092;-78
2023/06/17 07:14:58;;;;;;;0.20;0.20;;;18.00;99.90;;;;;;4817067;29;20502;-80
2023/06/17 07:17:24;;;;;;;0.10;0.10;;;18.00;99.90;;;;;;4839579;29;20045;-80
2023/06/17 07:19:50;;;;;;;0.20;0.20;;;18.10;99.90;;;;;;4826593;29;20139;-79
2023/06/17 07:22:15;;;;;;;0.10;0.10;;;18.10;99.90;;;;;;4820274;29;20041;-79
2023/06/17 07:24:41;;;;;;;0.20;0.20;;;18.10;99.90;;;;;;4835806;29;20446;-79
2023/06/17 07:27:06;;;;;;;0.13;0.13;;;18.20;99.90;;;;;;4817963;29;20126;-80
2023/06/17 07:29:32;;;;;;;0.20;0.20;;;18.20;99.90;;;;;;4817648;29;20536;-78
2023/06/17 07:31:58;;;;;;;0.20;0.20;;;18.20;99.90;;;;;;4822319;29;20052;-81
2023/06/17 07:34:23;;;;;;;0.10;0.10;;;18.30;99.90;;;;;;4836299;29;20053;-81
2023/06/17 07:36:52;;;;;;;0.20;0.20;;;18.40;99.90;;;;;;4823239;29;20042;-82
2023/06/17 07:39:19;;;;;;;0.10;0.10;;;18.40;99.90;;;;;;4837775;29;20065;-81
2023/06/17 07:41:45;;;;;;;0.20;0.20;;;18.50;99.90;;;;;;4823880;29;20054;-81
2023/06/17 07:44:10;;;;;;;0.20;0.20;;;18.50;99.90;;;;;;4837732;29;20042;-81
2023/06/17 07:46:36;;;;;;;0.20;0.20;;;18.60;99.90;;;;;;4837242;29;20451;-81
2023/06/17 07:49:02;;;;;;;0.10;0.10;;;18.60;99.90;;;;;;4817244;29;20058;-81
2023/06/17 07:51:27;;;;;;;0.10;0.10;;;18.60;99.90;;;;;;4828870;29;20524;-82
2023/06/17 07:53:53;;;;;;;0.20;0.20;;;18.70;99.90;;;;;;4838449;29;20460;-82
2023/06/17 07:56:22;;;;;;;0.20;0.20;;;18.70;99.90;;;;;;4819136;29;20085;-82
2023/06/17 07:58:48;;;;;;;0.10;0.10;;;18.80;99.90;;;;;;4816599;29;20038;-81
2023/06/17 08:01:13;;;;;;;0.20;0.20;;;18.90;99.90;;;;;;4839092;29;20056;-80
2023/06/17 08:03:39;;;;;;;0.20;0.20;;;18.80;99.90;;;;;;4831124;29;20598;-81
2023/06/17 08:06:05;;;;;;;0.20;0.20;;;18.90;99.90;;;;;;4821171;29;20046;-82
2023/06/17 08:08:31;;;;;;;0.20;0.20;;;18.90;99.90;;;;;;4837477;29;20077;-80
2023/06/17 08:10:56;;;;;;;0.20;0.20;;;19.00;99.90;;;;;;4805810;29;20085;-80
2023/06/17 08:13:22;;;;;;;0.10;0.10;;;19.00;99.90;;;;;;4835664;29;20113;-80
2023/06/17 08:15:49;;;;;;;0.20;0.20;;;19.00;99.90;;;;;;4823903;29;20082;-80
2023/06/17 08:18:15;;;;;;;0.20;0.20;;;19.10;99.90;;;;;;4816696;29;20077;-80
2023/06/17 08:20:41;;;;;;;0.20;0.20;;;19.20;99.90;;;;;;4815812;29;20460;-81
2023/06/17 08:23:07;;;;;;;0.20;0.20;;;19.20;99.90;;;;;;4828501;29;20598;-80
2023/06/17 08:25:33;;;;;;;0.10;0.10;;;19.20;99.90;;;;;;4813797;29;20530;-80
2023/06/17 08:27:59;;;;;;;0.20;0.20;;;19.20;99.80;;;;;;4831734;29;20064;-80
2023/06/17 08:30:25;;;;;;;0.20;0.20;;;19.30;99.80;;;;;;4840292;29;20058;-81
2023/06/17 08:32:51;;;;;;;0.20;0.20;;;19.30;99.80;;;;;;4823562;29;20057;-81
2023/06/17 08:35:17;;;;;;;0.10;0.10;;;19.40;99.80;;;;;;4820498;29;20066;-81
2023/06/17 08:37:42;;;;;;;0.20;0.20;;;19.40;99.80;;;;;;4813664;29;20313;-81
2023/06/17 08:40:08;;;;;;;0.20;0.20;;;19.50;99.80;;;;;;4807703;29;20088;-82
2023/06/17 08:42:34;;;;;;;0.20;0.20;;;19.60;99.90;;;;;;4837407;29;20609;-80
2023/06/17 08:45:00;;;;;;;0.17;0.17;;;19.70;99.90;;;;;;4827402;29;20098;-79
2023/06/17 08:47:27;;;;;;;0.20;0.20;;;19.80;99.90;;;;;;4821556;29;20053;-79
2023/06/17 08:49:56;;;;;;;0.20;0.20;;;19.80;99.90;;;;;;4821990;29;20053;-79
2023/06/17 08:52:22;;;;;;;0.20;0.20;;;19.90;99.90;;;;;;4821095;29;20281;-81
2023/06/17 08:54:48;;;;;;;0.20;0.20;;;19.80;99.90;;;;;;4832095;29;20042;-80
2023/06/17 08:57:15;;;;;;;0.20;0.20;;;19.90;99.90;;;;;;4821390;29;20057;-80
2023/06/17 08:59:41;;;;;;;0.17;0.17;;;19.90;99.40;;;;;;4838785;29;20056;-80
2023/06/17 09:02:08;;;;;;;0.40;0.40;;;19.90;99.30;;;;;;4820442;29;20046;-82
2023/06/17 09:04:35;;;;;;;0.15;0.15;;;20.00;99.30;;;;;;4837069;29;20050;-81
2023/06/17 09:07:00;;;;;;;0.20;0.20;;;20.00;99.30;;;;;;4819710;29;20053;-82
2023/06/17 09:09:26;;;;;;;0.30;0.30;;;20.10;99.30;;;;;;4831342;29;20041;-80
2023/06/17 09:11:52;;;;;;;0.10;0.10;;;20.10;99.20;;;;;;4826997;29;20046;-81
2023/06/17 09:14:20;;;;;;;0.20;0.20;;;20.10;99.10;;;;;;4838405;29;20054;-81
2023/06/17 09:16:45;;;;;;;0.20;0.20;;;20.10;99.00;;;;;;4820411;29;20077;-81
2023/06/17 09:19:14;;;;;;;0.20;0.20;;;20.20;98.90;;;;;;4818725;29;20193;-80
2023/06/17 09:21:40;;;;;;;0.20;0.20;;;20.20;98.90;;;;;;4821390;29;20050;-80
2023/06/17 09:24:11;;;;;;;0.20;0.20;;;20.20;99.20;;;;;;4821439;29;20101;-81
2023/06/17 09:26:42;;;;;;;0.20;0.20;;;20.30;98.90;;;;;;4823284;29;20050;-81
2023/06/17 09:29:09;;;;;;;;;;;20.40;99.00;;;;;;4838037;29;20417;-81
2023/06/17 09:31:49;;;;;;;0.20;0.20;;;20.50;98.90;;;;;;4821796;29;19932;-81
2023/06/17 09:34:15;;;;;;;0.20;0.20;;;20.50;98.80;;;;;;4836575;29;20050;-80
2023/06/17 09:36:41;;;;;;;0.20;0.20;;;20.50;98.70;;;;;;4820426;29;20054;-80
2023/06/17 09:39:12;;;;;;;0.10;0.10;;;20.70;98.80;;;;;;4811242;29;20448;-80
2023/06/17 09:41:44;;;;;;;0.20;0.20;;;20.70;98.70;;;;;;4836907;29;20534;-85
2023/06/17 09:44:12;;;;;;;0.10;0.10;;;20.70;98.70;;;;;;4830216;29;20045;-83
2023/06/17 09:46:46;;;;;;;0.10;0.10;;;20.70;98.70;;;;;;4818782;29;20042;-87
2023/06/17 09:49:15;;;;;;;0.20;0.20;;;20.90;98.70;;;;;;4829607;29;20530;-86
2023/06/17 09:51:42;;;;;;;0.20;0.20;;;20.90;98.60;;;;;;4822143;29;20088;-85
2023/06/17 09:54:09;;;;;;;0.10;0.10;;;21.00;98.40;;;;;;4824492;29;20057;-85
2023/06/17 09:56:36;;;;;;;0.10;0.10;;;21.10;98.30;;;;;;4842480;29;20039;-78
2023/06/17 09:59:08;;;;;;;0.10;0.10;;;21.10;98.20;;;;;;4816874;29;20050;-78
2023/06/17 10:01:39;;;;;;;0.15;0.15;;;21.20;98.30;;;;;;4843082;29;20042;-79
2023/06/17 10:04:05;;;;;;;;;;;21.20;98.30;;;;;;4824170;29;20185;-79
2023/06/17 10:06:38;;;;;;;0.10;0.10;;;21.30;98.00;;;;;;4822622;29;20437;-78
2023/06/17 10:09:07;;;;;;;0.20;0.20;;;21.40;97.90;;;;;;4824829;29;20065;-79
2023/06/17 10:11:34;;;;;;;0.13;0.13;;;21.40;97.80;;;;;;4841841;29;20426;-79
2023/06/17 10:14:01;;;;;;;0.20;0.20;;;21.40;97.70;;;;;;4842175;29;20038;-77
2023/06/17 10:16:31;;;;;;;0.20;0.20;;;21.50;97.60;;;;;;4840784;29;20064;-80
2023/06/17 10:19:01;;;;;;;0.20;0.20;;;21.60;97.50;;;;;;4832319;29;20042;-79
2023/06/17 10:21:28;;;;;;;0.20;0.20;;;21.60;97.30;;;;;;4824091;29;20093;-79
2023/06/17 10:23:56;;;;;;;0.30;0.30;;;21.70;97.20;;;;;;4824696;29;20114;-79
2023/06/17 10:26:21;;;;;;;0.20;0.20;;;21.80;97.20;;;;;;4823666;29;20444;-79
2023/06/17 10:28:53;;;;;;;0.20;0.20;;;21.80;97.00;;;;;;4840934;29;20056;-80
2023/06/17 10:31:39;;;;;;;0.20;0.20;;;21.90;96.90;;;;;;4824268;29;20058;-80
2023/06/17 10:34:05;;;;;;;0.10;0.10;;;21.90;97.00;;;;;;4839406;29;20037;-80
2023/06/17 10:36:33;;;;;;;0.10;0.10;;;22.00;96.80;;;;;;4822508;29;20098;-79
2023/06/17 10:39:12;;;;;;;0.20;0.20;;;22.00;96.70;;;;;;4840375;29;20085;-79
2023/06/17 10:41:38;;;;;;;0.10;0.10;;;22.10;96.80;;;;;;4841977;29;20077;-78
2023/06/17 10:44:34;;;;;;;0.30;0.30;;;22.20;96.60;;;;;;4840947;29;20049;-79
2023/06/17 10:47:02;;;;;;;0.13;0.13;;;22.20;96.30;;;;;;4818702;29;20109;-81
2023/06/17 10:49:39;;;;;;;0.10;0.10;;;22.30;96.20;;;;;;4820795;29;20446;-79
2023/06/17 10:52:05;;;;;;;0.20;0.20;;;22.30;96.20;;;;;;4823854;29;20386;-78
2023/06/17 10:54:33;;;;;;;0.20;0.20;;;22.40;96.20;;;;;;4841110;29;20042;-78
2023/06/17 10:57:01;;;;;;;0.20;0.20;;;22.50;96.00;;;;;;4818279;29;20046;-78
2023/06/17 10:59:29;;;;;;;0.20;0.20;;;22.60;96.00;;;;;;4806497;29;20043;-79
2023/06/17 11:02:01;;;;;;;0.20;0.20;;;22.70;96.00;;;;;;4823120;29;20090;-78
2023/06/17 11:04:30;;;;;;;0.20;0.20;;;22.70;95.90;;;;;;4825006;29;20042;-78
2023/06/17 11:06:57;;;;;;;0.10;0.10;;;22.80;95.80;;;;;;4841225;29;20046;-78
2023/06/17 11:09:28;;;;;;;0.20;0.20;;;22.80;95.60;;;;;;4824570;29;20447;-78
2023/06/17 11:11:54;;;;;;;0.20;0.20;;;22.90;95.40;;;;;;4825140;29;20080;-79
2023/06/17 11:14:21;;;;;;;0.13;0.13;;;22.90;95.30;;;;;;4824236;29;20056;-78
2023/06/17 11:16:48;;;;;;;0.20;0.20;;;23.00;95.30;;;;;;4821512;29;20050;-77
2023/06/17 11:19:14;;;;;;;0.20;0.20;;;23.10;95.20;;;;;;4826966;29;20053;-78
2023/06/17 11:21:40;;;;;;;0.20;0.20;;;23.10;95.10;;;;;;4841121;29;20046;-78
2023/06/17 11:24:06;;;;;;;0.20;0.20;;;23.20;94.90;;;;;;4824677;29;20054;-78
2023/06/17 11:26:33;;;;;;;0.20;0.20;;;23.20;94.80;;;;;;4824635;29;20061;-78
2023/06/17 11:28:59;;;;;;;0.20;0.20;;;23.30;94.70;;;;;;4824068;29;20179;-79
2023/06/17 11:31:28;;;;;;;0.15;0.15;;;23.40;94.50;;;;;;4825174;29;20566;-78
2023/06/17 11:34:00;;;;;;;0.20;0.20;;;23.40;94.40;;;;;;4839125;29;20038;-78
2023/06/17 11:36:26;;;;;;;0.20;0.20;;;23.60;94.30;;;;;;4824274;29;20326;-78
2023/06/17 11:38:54;;;;;;;0.20;0.20;;;23.60;94.30;;;;;;4824509;29;20050;-79
2023/06/17 11:41:21;;;;;;;0.10;0.10;;;23.70;94.20;;;;;;4806536;29;20043;-78
2023/06/17 11:43:48;;;;;;;0.20;0.20;;;23.70;94.10;;;;;;4805780;29;20062;-78
2023/06/17 11:46:21;;;;;;;0.20;0.20;;;23.80;93.70;;;;;;4806338;29;20051;-79
2023/06/17 11:48:48;;;;;;;0.17;0.17;;;23.90;93.80;;;;;;4835790;29;20418;-79
2023/06/17 11:51:20;;;;;;;0.20;0.20;;;23.90;93.60;;;;;;4839510;29;20053;-80
2023/06/17 11:53:47;;;;;;;0.20;0.20;;;24.00;93.50;;;;;;4809518;29;20062;-80
2023/06/17 11:56:20;;;;;;;0.20;0.20;;;24.00;93.30;;;;;;4822441;29;20057;-80
2023/06/17 11:58:46;;;;;;;0.20;0.20;;;24.10;93.20;;;;;;4837187;29;20057;-80
2023/06/17 12:01:13;;;;;;;0.20;0.20;;;24.20;93.00;;;;;;4816121;29;20053;-78
2023/06/17 12:03:45;;;;;;;0.20;0.20;;;24.30;93.10;;;;;;4824074;29;20039;-78
2023/06/17 12:06:19;;;;;;;0.50;0.50;;;24.20;93.10;;;;;;4824905;29;20062;-78
2023/06/17 12:08:54;;;;;;;0.25;0.20;;;24.50;92.90;;;;;;4826154;29;20081;-79
2023/06/17 12:11:23;;;;;;;0.20;0.20;;;24.50;92.70;;;;;;4824074;29;20150;-78
2023/06/17 12:13:50;;;;;;;0.20;0.20;;;24.60;92.60;;;;;;4807297;29;20046;-79
2023/06/17 12:16:33;;;;;;;0.20;0.20;;;24.60;92.50;;;;;;4823247;29;20074;-79
2023/06/17 12:19:00;;;;;;;0.20;0.20;;;24.70;92.50;;;;;;4822215;29;20057;-78
2023/06/17 12:21:26;;;;;;;0.20;0.20;;;24.70;92.40;;;;;;4807084;29;20137;-79
2023/06/17 12:23:54;;;;;;;0.20;0.20;;;24.80;92.40;;;;;;4810169;29;20397;-78
2023/06/17 12:26:21;;;;;;;0.20;0.20;;;24.90;92.30;;;;;;4839822;29;20046;-78
2023/06/17 12:28:46;;;;;;;0.20;0.20;;;25.00;92.20;;;;;;4826962;29;20049;-77
2023/06/17 12:31:12;;;;;;;0.20;0.20;;;25.00;92.00;;;;;;4825015;29;20414;-79
2023/06/17 12:33:41;;;;;;;0.20;0.20;;;25.00;91.90;;;;;;4837352;29;20050;-78
2023/06/17 12:36:07;;;;;;;0.25;0.25;;;25.10;92.00;;;;;;4832305;29;20054;-77
2023/06/17 12:38:34;;;;;;;0.20;0.20;;;25.20;91.80;;;;;;4832061;29;20042;-78
2023/06/17 12:41:00;;;;;;;0.22;0.22;;;25.20;91.60;;;;;;4817660;29;20075;-78
2023/06/17 12:43:28;;;;;;;0.40;0.30;;;25.30;91.60;;;;;;4835647;29;20054;-78
2023/06/17 12:45:54;;;;;;;0.20;0.20;;;25.30;91.40;;;;;;4850333;29;20045;-78
2023/06/17 12:48:20;;;;;;;0.20;0.20;;;25.40;91.40;;;;;;4819885;29;20054;-80